Time;durP1;ratioP1;P1;durP2;ratioP2;P2;SDS_P1;SDS_P2;PMS_P1;PMS_P2;Temp;Humidity;BMP_temperature;BMP_pressure;BME280_temperature;BME280_humidity;BME280_pressure;Samples;Min_cycle;Max_cycle;Signal;HPM_P1;HPM_P2
2022/04/02 00:02:04;;;;;;;4.22;2.90;;;;;;;;;;5073937;28;20040;-25
2022/04/02 00:04:30;;;;;;;3.88;2.72;;;;;;;;;;5073873;28;20048;-25
2022/04/02 00:06:56;;;;;;;3.28;2.38;;;;;;;;;;5073752;28;20109;-25
2022/04/02 00:09:22;;;;;;;6.05;2.63;;;;;;;;;;5055566;28;20141;-25
2022/04/02 00:11:49;;;;;;;3.08;2.28;;;;;;;;;;5073503;28;20040;-26
2022/04/02 00:14:15;;;;;;;3.97;2.97;;;;;;;;;;5073557;28;20040;-25
2022/04/02 00:16:41;;;;;;;2.40;2.15;;;;;;;;;;5039243;28;20063;-27
2022/04/02 00:19:08;;;;;;;5.40;2.65;;;;;;;;;;5073891;28;20516;-25
2022/04/02 00:21:34;;;;;;;4.10;2.80;;;;;;;;;;5073524;28;20036;-26
2022/04/02 00:24:01;;;;;;;5.32;2.63;;;;;;;;;;5073158;28;20205;-27
2022/04/02 00:26:27;;;;;;;5.53;2.47;;;;;;;;;;5073662;28;20098;-26
2022/04/02 00:28:54;;;;;;;3.53;2.70;;;;;;;;;;5055350;28;20044;-25
2022/04/02 00:31:21;;;;;;;3.30;3.00;;;;;;;;;;5073256;28;20041;-25
2022/04/02 00:33:48;;;;;;;5.45;2.58;;;;;;;;;;5072427;28;20041;-25
2022/04/02 00:36:14;;;;;;;3.13;2.80;;;;;;;;;;5073275;28;20490;-25
2022/04/02 00:38:41;;;;;;;2.97;2.67;;;;;;;;;;5072760;28;20045;-25
2022/04/02 00:41:07;;;;;;;3.38;2.92;;;;;;;;;;5072789;28;20055;-26
2022/04/02 00:43:36;;;;;;;2.80;2.40;;;;;;;;;;5073154;28;20049;-27
2022/04/02 00:46:05;;;;;;;5.47;3.05;;;;;;;;;;5072835;28;20053;-25
2022/04/02 00:48:31;;;;;;;3.72;2.97;;;;;;;;;;5072954;28;20080;-25
2022/04/02 00:50:58;;;;;;;3.17;2.50;;;;;;;;;;5073058;28;20041;-25
2022/04/02 00:53:24;;;;;;;3.63;2.65;;;;;;;;;;5073138;28;20524;-26
2022/04/02 00:55:51;;;;;;;4.25;2.60;;;;;;;;;;5072976;28;20094;-25
2022/04/02 00:58:17;;;;;;;3.92;2.72;;;;;;;;;;5072914;28;20047;-25
2022/04/02 01:00:44;;;;;;;6.57;3.15;;;;;;;;;;5072748;28;20045;-25
2022/04/02 01:03:11;;;;;;;5.18;2.88;;;;;;;;;;5072403;28;20086;-26
2022/04/02 01:05:38;;;;;;;4.00;2.88;;;;;;;;;;5072606;28;20461;-26
2022/04/02 01:08:05;;;;;;;4.75;2.60;;;;;;;;;;5072186;28;20036;-25
2022/04/02 01:10:36;;;;;;;4.38;2.65;;;;;;;;;;5072449;28;20044;-26
2022/04/02 01:13:02;;;;;;;3.38;2.65;;;;;;;;;;5054591;28;20048;-25
2022/04/02 01:15:28;;;;;;;3.20;2.60;;;;;;;;;;5072736;28;20044;-26
2022/04/02 01:17:54;;;;;;;4.20;2.30;;;;;;;;;;5072687;28;20059;-25
2022/04/02 01:20:20;;;;;;;5.05;2.65;;;;;;;;;;5072619;28;20390;-25
2022/04/02 01:22:46;;;;;;;4.85;3.10;;;;;;;;;;5072066;28;20047;-25
2022/04/02 01:25:13;;;;;;;3.67;2.33;;;;;;;;;;5072401;28;20043;-25
2022/04/02 01:27:39;;;;;;;4.72;2.70;;;;;;;;;;5072120;28;20041;-25
2022/04/02 01:30:05;;;;;;;4.18;2.78;;;;;;;;;;5071956;28;20190;-24
2022/04/02 01:32:32;;;;;;;5.30;2.70;;;;;;;;;;5037914;28;20040;-26
2022/04/02 01:34:58;;;;;;;3.22;2.78;;;;;;;;;;5072333;28;20047;-25
2022/04/02 01:37:24;;;;;;;3.33;2.55;;;;;;;;;;5072225;28;20036;-26
2022/04/02 01:39:50;;;;;;;5.60;2.90;;;;;;;;;;5072322;28;20040;-26
2022/04/02 01:42:20;;;;;;;3.33;2.65;;;;;;;;;;5072427;28;20044;-25
2022/04/02 01:44:51;;;;;;;4.47;2.75;;;;;;;;;;5072686;28;20494;-25
2022/04/02 01:47:18;;;;;;;2.88;2.45;;;;;;;;;;5072352;28;20045;-25
2022/04/02 01:49:44;;;;;;;4.32;3.00;;;;;;;;;;5071699;28;20083;-27
2022/04/02 01:52:10;;;;;;;5.05;2.80;;;;;;;;;;5072360;28;20490;-25
2022/04/02 01:54:36;;;;;;;6.30;3.05;;;;;;;;;;5072449;28;20439;-25
2022/04/02 01:57:02;;;;;;;4.25;2.63;;;;;;;;;;5072751;28;20037;-25
2022/04/02 01:59:28;;;;;;;4.20;2.70;;;;;;;;;;5072753;28;20543;-25
2022/04/02 02:01:54;;;;;;;5.13;3.08;;;;;;;;;;5072728;28;20040;-25
2022/04/02 02:04:21;;;;;;;4.05;2.60;;;;;;;;;;5072601;28;20394;-25
2022/04/02 02:06:47;;;;;;;3.10;2.25;;;;;;;;;;5072559;28;20051;-25
2022/04/02 02:09:13;;;;;;;4.10;2.83;;;;;;;;;;5072317;28;20040;-25
2022/04/02 02:11:40;;;;;;;3.67;2.50;;;;;;;;;;5072364;28;20063;-25
2022/04/02 02:14:07;;;;;;;3.47;2.90;;;;;;;;;;5072463;28;20490;-25
2022/04/02 02:16:34;;;;;;;3.47;2.28;;;;;;;;;;5071915;28;20048;-25
2022/04/02 02:19:00;;;;;;;3.15;2.50;;;;;;;;;;5072426;28;20361;-25
2022/04/02 02:21:26;;;;;;;3.28;2.42;;;;;;;;;;5072049;28;20123;-25
2022/04/02 02:23:52;;;;;;;3.72;2.67;;;;;;;;;;5071860;28;20052;-24
2022/04/02 02:26:18;;;;;;;3.95;2.88;;;;;;;;;;5072029;28;20390;-25
2022/04/02 02:28:44;;;;;;;4.63;2.65;;;;;;;;;;5071898;28;20442;-25
2022/04/02 02:31:10;;;;;;;3.50;2.35;;;;;;;;;;5071930;28;20079;-25
2022/04/02 02:36:21;;;;;;;3.13;2.50;;;;;;;;;;5053989;28;20604;-26
2022/04/02 02:38:47;;;;;;;6.68;3.28;;;;;;;;;;5071685;28;20449;-25
2022/04/02 02:41:13;;;;;;;6.97;2.75;;;;;;;;;;5071906;28;20489;-24
2022/04/02 02:43:39;;;;;;;6.38;2.70;;;;;;;;;;5071901;28;20047;-26
2022/04/02 02:46:06;;;;;;;4.07;2.80;;;;;;;;;;5071699;28;20041;-25
2022/04/02 02:48:32;;;;;;;3.88;2.40;;;;;;;;;;5071476;28;20056;-25
2022/04/02 02:50:58;;;;;;;3.50;3.20;;;;;;;;;;5071794;28;20037;-25
2022/04/02 02:53:24;;;;;;;4.72;2.95;;;;;;;;;;5071895;28;20040;-26
2022/04/02 02:55:50;;;;;;;4.40;2.90;;;;;;;;;;5071857;28;20064;-25
2022/04/02 02:58:16;;;;;;;7.13;2.90;;;;;;;;;;5077800;28;20406;-24
2022/04/02 03:00:43;;;;;;;4.43;2.90;;;;;;;;;;5077868;28;20051;-25
2022/04/02 03:03:09;;;;;;;3.97;2.70;;;;;;;;;;5077825;28;20051;-25
2022/04/02 03:05:36;;;;;;;4.65;3.20;;;;;;;;;;5078384;28;20044;-25
2022/04/02 03:08:02;;;;;;;5.00;3.00;;;;;;;;;;5059889;28;20045;-28
2022/04/02 03:10:28;;;;;;;4.55;2.95;;;;;;;;;;5078086;28;20409;-25
2022/04/02 03:12:57;;;;;;;3.67;2.67;;;;;;;;;;5078186;28;20070;-26
2022/04/02 03:15:24;;;;;;;4.28;3.20;;;;;;;;;;5078252;28;20478;-27
2022/04/02 03:17:51;;;;;;;5.28;2.90;;;;;;;;;;5078232;28;20134;-24
2022/04/02 03:20:18;;;;;;;3.50;2.78;;;;;;;;;;5077928;28;20482;-25
2022/04/02 03:22:45;;;;;;;3.35;3.03;;;;;;;;;;5077818;28;20040;-25
2022/04/02 03:25:18;;;;;;;4.30;3.30;;;;;;;;;;5078312;28;20501;-25
2022/04/02 03:27:44;;;;;;;4.18;3.13;;;;;;;;;;5078084;28;20125;-25
2022/04/02 03:30:11;;;;;;;5.18;3.50;;;;;;;;;;5077579;28;20124;-26
2022/04/02 03:32:38;;;;;;;5.13;2.92;;;;;;;;;;5077918;28;20393;-25
2022/04/02 03:35:04;;;;;;;7.07;3.05;;;;;;;;;;5077880;28;20059;-24
2022/04/02 03:37:31;;;;;;;3.45;2.75;;;;;;;;;;5077757;28;20063;-26
2022/04/02 03:39:57;;;;;;;4.10;3.05;;;;;;;;;;5078088;28;20043;-25
2022/04/02 03:42:23;;;;;;;5.22;2.78;;;;;;;;;;5077797;28;20051;-25
2022/04/02 03:44:50;;;;;;;4.43;3.28;;;;;;;;;;5077461;28;20040;-25
2022/04/02 03:47:16;;;;;;;3.85;3.22;;;;;;;;;;5077637;28;20043;-25
2022/04/02 03:49:43;;;;;;;4.00;3.33;;;;;;;;;;5077795;28;20051;-25
2022/04/02 03:52:10;;;;;;;3.70;3.22;;;;;;;;;;5077628;28;20036;-26
2022/04/02 03:54:36;;;;;;;5.30;2.90;;;;;;;;;;5077705;28;20448;-26
2022/04/02 03:57:06;;;;;;;4.65;3.40;;;;;;;;;;5077558;28;20040;-26
2022/04/02 03:59:32;;;;;;;7.18;4.20;;;;;;;;;;5077466;28;20540;-25
2022/04/02 04:01:59;;;;;;;5.72;3.13;;;;;;;;;;5077725;28;20482;-25
2022/04/02 04:04:26;;;;;;;5.40;3.40;;;;;;;;;;5077478;28;20086;-27
2022/04/02 04:06:52;;;;;;;4.00;2.83;;;;;;;;;;5077256;28;20110;-25
2022/04/02 04:09:19;;;;;;;5.13;3.60;;;;;;;;;;5075012;28;20402;-26
2022/04/02 04:11:45;;;;;;;4.20;3.15;;;;;;;;;;5074381;28;20403;-25
2022/04/02 04:14:12;;;;;;;7.03;3.33;;;;;;;;;;5074357;28;20391;-25
2022/04/02 04:16:38;;;;;;;4.20;3.00;;;;;;;;;;5074364;28;20398;-25
2022/04/02 04:19:04;;;;;;;5.38;3.10;;;;;;;;;;5074208;28;20040;-25
2022/04/02 04:21:30;;;;;;;7.63;3.05;;;;;;;;;;5074276;28;20045;-27
2022/04/02 04:23:56;;;;;;;5.85;3.20;;;;;;;;;;5074097;28;20115;-26
2022/04/02 04:26:22;;;;;;;7.40;3.42;;;;;;;;;;5074178;28;20513;-26
2022/04/02 04:28:48;;;;;;;5.22;3.60;;;;;;;;;;5073538;28;20053;-31
2022/04/02 04:31:17;;;;;;;6.68;3.40;;;;;;;;;;5073802;28;20048;-29
2022/04/02 04:33:44;;;;;;;5.90;3.40;;;;;;;;;;5073571;28;20047;-30
2022/04/02 04:36:10;;;;;;;3.75;2.80;;;;;;;;;;5073683;28;20040;-31
2022/04/02 04:38:36;;;;;;;4.47;3.00;;;;;;;;;;5072850;28;20032;-29
2022/04/02 04:41:03;;;;;;;6.97;3.58;;;;;;;;;;5072909;28;20085;-31
2022/04/02 04:43:29;;;;;;;5.05;3.50;;;;;;;;;;5072596;28;20512;-29
2022/04/02 04:45:55;;;;;;;3.80;2.92;;;;;;;;;;5073421;28;20037;-30
2022/04/02 04:48:21;;;;;;;3.65;2.97;;;;;;;;;;5073249;28;20120;-29
2022/04/02 04:50:47;;;;;;;6.32;3.25;;;;;;;;;;5073008;28;20070;-28
2022/04/02 04:53:14;;;;;;;4.45;3.30;;;;;;;;;;5070392;28;20040;-31
2022/04/02 04:55:40;;;;;;;5.55;3.30;;;;;;;;;;5069558;28;20094;-29
2022/04/02 04:58:07;;;;;;;5.40;3.15;;;;;;;;;;5073302;28;20490;-29
2022/04/02 05:00:33;;;;;;;7.90;3.50;;;;;;;;;;5073042;28;20375;-29
2022/04/02 05:02:59;;;;;;;4.20;3.05;;;;;;;;;;5072668;28;20379;-30
2022/04/02 05:05:26;;;;;;;6.03;3.70;;;;;;;;;;5072712;28;20036;-29
2022/04/02 05:07:52;;;;;;;5.90;3.70;;;;;;;;;;5072804;28;20044;-29
2022/04/02 05:10:18;;;;;;;7.53;3.80;;;;;;;;;;5072393;28;20398;-30
2022/04/02 05:12:44;;;;;;;5.18;3.30;;;;;;;;;;5072219;28;20040;-31
2022/04/02 05:15:11;;;;;;;4.85;3.17;;;;;;;;;;5072729;28;20123;-30
2022/04/02 05:17:37;;;;;;;7.13;3.60;;;;;;;;;;5072674;28;20090;-29
2022/04/02 05:20:04;;;;;;;5.95;3.83;;;;;;;;;;5071882;28;20072;-30
2022/04/02 05:22:31;;;;;;;7.85;4.18;;;;;;;;;;5071959;28;20406;-30
2022/04/02 05:24:57;;;;;;;9.13;4.65;;;;;;;;;;5072218;28;20080;-31
2022/04/02 05:27:24;;;;;;;7.30;4.57;;;;;;;;;;5072408;28;20044;-30
2022/04/02 05:29:51;;;;;;;6.80;4.10;;;;;;;;;;5072308;28;20456;-30
2022/04/02 05:32:17;;;;;;;6.78;4.50;;;;;;;;;;5071656;28;20052;-29
2022/04/02 05:34:43;;;;;;;5.70;4.07;;;;;;;;;;5072099;28;20119;-29
2022/04/02 05:37:09;;;;;;;6.32;3.83;;;;;;;;;;5072091;28;20440;-31
2022/04/02 05:39:36;;;;;;;5.00;3.47;;;;;;;;;;5071828;28;20048;-29
2022/04/02 05:42:02;;;;;;;6.40;3.40;;;;;;;;;;5071686;28;20265;-29
2022/04/02 05:44:30;;;;;;;6.78;3.63;;;;;;;;;;5072241;28;20041;-28
2022/04/02 05:46:56;;;;;;;5.45;3.55;;;;;;;;;;5071771;28;20051;-29
2022/04/02 05:49:22;;;;;;;6.75;3.40;;;;;;;;;;5071890;28;20049;-30
2022/04/02 05:51:48;;;;;;;4.03;3.40;;;;;;;;;;5071274;28;20036;-28
2022/04/02 05:54:14;;;;;;;4.97;3.88;;;;;;;;;;5071910;28;20045;-32
2022/04/02 05:56:41;;;;;;;7.88;3.50;;;;;;;;;;5071858;28;20036;-31
2022/04/02 05:59:07;;;;;;;5.88;3.03;;;;;;;;;;5071724;28;20040;-30
2022/04/02 06:01:35;;;;;;;7.65;3.72;;;;;;;;;;5071540;28;20129;-32
2022/04/02 06:04:02;;;;;;;5.13;3.63;;;;;;;;;;5071433;28;20379;-29
2022/04/02 06:06:28;;;;;;;7.55;3.70;;;;;;;;;;5071488;28;20045;-30
2022/04/02 06:08:54;;;;;;;6.70;3.65;;;;;;;;;;5071313;28;20363;-30
2022/04/02 06:11:20;;;;;;;7.18;3.75;;;;;;;;;;5071365;28;20052;-29
2022/04/02 06:13:46;;;;;;;8.23;4.20;;;;;;;;;;5070923;28;20041;-30
2022/04/02 06:16:12;;;;;;;5.07;3.38;;;;;;;;;;5071392;28;20457;-30
2022/04/02 06:18:39;;;;;;;4.75;3.90;;;;;;;;;;5071110;28;20047;-30
2022/04/02 06:21:05;;;;;;;5.95;3.70;;;;;;;;;;5070854;28;20379;-29
2022/04/02 06:23:32;;;;;;;5.22;3.67;;;;;;;;;;5071404;28;20040;-29
2022/04/02 06:25:59;;;;;;;6.32;3.60;;;;;;;;;;5071334;28;20052;-31
2022/04/02 06:28:25;;;;;;;6.05;4.00;;;;;;;;;;5071321;28;20453;-27
2022/04/02 06:30:51;;;;;;;4.78;3.70;;;;;;;;;;5070942;28;20032;-27
2022/04/02 06:33:17;;;;;;;4.75;4.20;;;;;;;;;;5070850;28;20044;-28
2022/04/02 06:35:43;;;;;;;6.35;4.43;;;;;;;;;;5071710;28;20502;-27
2022/04/02 06:38:09;;;;;;;6.93;3.92;;;;;;;;;;5071496;28;20490;-30
2022/04/02 06:40:35;;;;;;;6.70;3.97;;;;;;;;;;5070966;28;20029;-30
2022/04/02 06:43:01;;;;;;;8.02;3.85;;;;;;;;;;5070758;28;20051;-29
2022/04/02 06:45:27;;;;;;;6.72;4.20;;;;;;;;;;5070923;28;20036;-28
2022/04/02 06:47:53;;;;;;;7.53;4.10;;;;;;;;;;5070970;28;20129;-29
2022/04/02 06:50:19;;;;;;;6.32;4.30;;;;;;;;;;5070663;28;20048;-30
2022/04/02 06:52:46;;;;;;;5.72;3.97;;;;;;;;;;5070321;28;20127;-31
2022/04/02 06:55:13;;;;;;;8.20;3.78;;;;;;;;;;5071061;28;20413;-29
2022/04/02 06:57:42;;;;;;;6.80;3.85;;;;;;;;;;5070794;28;20053;-31
2022/04/02 07:00:09;;;;;;;3.95;3.33;;;;;;;;;;5070820;28;20032;-31
2022/04/02 07:02:35;;;;;;;5.10;3.95;;;;;;;;;;5070362;28;20036;-29
2022/04/02 07:05:01;;;;;;;6.43;4.57;;;;;;;;;;5070558;28;20043;-30
2022/04/02 07:07:27;;;;;;;6.78;3.75;;;;;;;;;;5070697;28;20051;-31
2022/04/02 07:09:53;;;;;;;4.38;3.55;;;;;;;;;;5070546;28;20517;-31
2022/04/02 07:12:19;;;;;;;7.88;4.20;;;;;;;;;;5069969;28;20119;-31
2022/04/02 07:14:45;;;;;;;4.70;3.63;;;;;;;;;;5070689;28;20079;-34
2022/04/02 07:17:12;;;;;;;4.63;3.60;;;;;;;;;;5070469;28;20052;-31
2022/04/02 07:19:39;;;;;;;4.88;3.65;;;;;;;;;;5052656;28;20076;-32
2022/04/02 07:22:09;;;;;;;8.27;3.90;;;;;;;;;;5070456;28;20044;-29
2022/04/02 07:24:37;;;;;;;5.72;4.38;;;;;;;;;;5070765;28;20098;-30
2022/04/02 07:27:04;;;;;;;6.15;3.78;;;;;;;;;;5070745;28;20097;-30
2022/04/02 07:29:31;;;;;;;5.65;4.15;;;;;;;;;;5052041;28;20056;-30
2022/04/02 07:31:58;;;;;;;6.45;3.83;;;;;;;;;;5069841;28;20081;-30
2022/04/02 07:34:24;;;;;;;7.40;4.00;;;;;;;;;;5070712;28;20044;-30
2022/04/02 07:36:56;;;;;;;7.45;3.65;;;;;;;;;;5072067;28;20116;-30
2022/04/02 07:39:26;;;;;;;6.82;4.28;;;;;;;;;;5071831;28;20506;-24
2022/04/02 07:41:52;;;;;;;10.27;4.57;;;;;;;;;;5071075;28;20105;-31
2022/04/02 07:44:21;;;;;;;6.18;3.60;;;;;;;;;;5074246;28;20486;-28
2022/04/02 07:46:47;;;;;;;5.82;3.17;;;;;;;;;;5056808;28;20052;-27
2022/04/02 07:49:18;;;;;;;8.82;4.00;;;;;;;;;;5074332;28;20044;-29
2022/04/02 07:51:50;;;;;;;6.45;3.63;;;;;;;;;;5073993;28;20036;-28
2022/04/02 07:54:17;;;;;;;5.47;3.63;;;;;;;;;;5073831;28;20039;-31
2022/04/02 07:56:46;;;;;;;5.45;3.65;;;;;;;;;;5073855;28;20047;-28
2022/04/02 07:59:15;;;;;;;4.70;3.97;;;;;;;;;;5073451;28;20048;-28
2022/04/02 08:01:44;;;;;;;5.55;3.35;;;;;;;;;;5073370;28;20040;-30
2022/04/02 08:04:12;;;;;;;5.88;4.00;;;;;;;;;;5070635;28;20032;-27
2022/04/02 08:06:39;;;;;;;7.18;3.70;;;;;;;;;;5055777;28;20131;-27
2022/04/02 08:09:07;;;;;;;8.30;3.92;;;;;;;;;;5073463;28;20044;-28
2022/04/02 08:11:37;;;;;;;5.97;3.40;;;;;;;;;;5072986;28;20510;-29
2022/04/02 08:14:03;;;;;;;4.55;3.70;;;;;;;;;;5073610;28;20040;-27
2022/04/02 08:16:30;;;;;;;3.90;3.50;;;;;;;;;;5073640;28;20040;-29
2022/04/02 08:18:57;;;;;;;4.93;3.47;;;;;;;;;;5073322;28;20054;-28
2022/04/02 08:21:23;;;;;;;5.65;3.90;;;;;;;;;;5067406;28;20050;-27
2022/04/02 08:23:49;;;;;;;5.75;3.55;;;;;;;;;;5052966;28;20041;-30
2022/04/02 08:26:30;;;;;;;4.15;2.90;;;;;;;;;;5053443;28;20490;-28
2022/04/02 08:28:56;;;;;;;7.82;3.75;;;;;;;;;;5054174;28;20041;-25
2022/04/02 08:31:25;;;;;;;6.93;3.22;;;;;;;;;;5054313;28;20049;-26
2022/04/02 08:33:54;;;;;;;3.80;3.13;;;;;;;;;;5053822;28;20556;-26
2022/04/02 08:36:23;;;;;;;3.90;2.70;;;;;;;;;;5053488;28;20082;-26
2022/04/02 08:39:01;;;;;;;2.60;2.40;;;;;;;;;;5053038;28;20045;-25
2022/04/02 08:41:43;;;;;;;3.97;2.70;;;;;;;;;;5053570;28;20567;-25
2022/04/02 08:44:21;;;;;;;4.45;2.80;;;;;;;;;;5035660;28;20127;-26
2022/04/02 08:47:02;;;;;;;3.78;2.70;;;;;;;;;;5053500;28;20043;-26
2022/04/02 08:49:40;;;;;;;4.25;2.70;;;;;;;;;;5053230;28;20091;-25
2022/04/02 08:52:16;;;;;;;3.20;2.60;;;;;;;;;;5053436;28;20033;-26
2022/04/02 08:55:03;;;;;;;4.03;2.70;;;;;;;;;;5052420;28;20486;-26
2022/04/02 08:57:36;;;;;;;4.45;2.60;;;;;;;;;;5022333;28;20239;-26
2022/04/02 09:00:07;;;;;;;2.50;2.30;;;;;;;;;;5053331;28;20041;-25
2022/04/02 09:03:09;;;;;;;2.58;2.38;;;;;;;;;;5052851;28;20204;-26
2022/04/02 09:05:55;;;;;;;4.15;2.58;;;;;;;;;;4991064;28;20121;-26
2022/04/02 09:08:33;;;;;;;5.53;2.55;;;;;;;;;;5031453;28;20057;-27
2022/04/02 09:11:06;;;;;;;2.60;2.20;;;;;;;;;;5052807;28;20066;-27
2022/04/02 09:13:51;;;;;;;3.47;2.50;;;;;;;;;;5052736;28;20033;-26
2022/04/02 09:16:26;;;;;;;2.85;2.47;;;;;;;;;;5052673;28;20120;-26
2022/04/02 09:18:52;;;;;;;4.13;2.38;;;;;;;;;;5052423;28;20041;-28
2022/04/02 09:21:48;;;;;;;3.70;2.30;;;;;;;;;;5034532;28;20052;-26
2022/04/02 09:24:33;;;;;;;3.97;2.40;;;;;;;;;;5052773;28;20045;-27
2022/04/02 09:27:25;;;;;;;3.08;2.72;;;;;;;;;;5034407;28;20041;-26
2022/04/02 09:30:06;;;;;;;3.40;2.35;;;;;;;;;;5049414;28;20060;-25
2022/04/02 09:32:51;;;;;;;2.67;2.47;;;;;;;;;;5052480;28;20080;-26
2022/04/02 09:35:36;;;;;;;2.97;2.50;;;;;;;;;;5052153;28;20037;-26
2022/04/02 09:38:28;;;;;;;3.63;2.58;;;;;;;;;;5052060;28;20124;-27
2022/04/02 09:41:04;;;;;;;4.25;2.50;;;;;;;;;;5028549;28;20124;-27
2022/04/02 09:43:34;;;;;;;1.95;1.77;;;;;;;;;;5052318;28;20060;-28
2022/04/02 09:46:20;;;;;;;2.42;2.10;;;;;;;;;;5048982;28;20375;-27
2022/04/02 09:48:52;;;;;;;2.35;1.80;;;;;;;;;;5049769;28;20041;-26
2022/04/02 09:51:20;;;;;;;3.97;2.30;;;;;;;;;;5052102;28;20037;-26
2022/04/02 09:53:55;;;;;;;2.55;2.30;;;;;;;;;;5052454;28;20045;-27
2022/04/02 09:56:28;;;;;;;3.63;2.17;;;;;;;;;;5050314;28;20528;-27
2022/04/02 09:59:03;;;;;;;4.63;2.25;;;;;;;;;;5048194;28;20503;-25
2022/04/02 10:01:39;;;;;;;3.67;2.80;;;;;;;;;;5047976;28;20127;-27
2022/04/02 10:04:05;;;;;;;4.13;2.60;;;;;;;;;;5048654;28;20380;-26
2022/04/02 10:06:41;;;;;;;4.28;2.08;;;;;;;;;;5048677;28;20047;-26
2022/04/02 10:09:07;;;;;;;2.10;1.90;;;;;;;;;;5048702;28;20033;-26
2022/04/02 10:11:35;;;;;;;2.38;1.70;;;;;;;;;;5048867;28;20033;-25
2022/04/02 10:14:02;;;;;;;3.58;2.20;;;;;;;;;;5051405;28;20490;-26
2022/04/02 10:16:29;;;;;;;4.70;2.08;;;;;;;;;;5051908;28;20044;-26
2022/04/02 10:18:56;;;;;;;3.05;1.75;;;;;;;;;;5052099;28;20051;-27
2022/04/02 10:21:23;;;;;;;2.22;1.90;;;;;;;;;;5051542;28;20534;-27
2022/04/02 10:24:06;;;;;;;2.78;1.60;;;;;;;;;;5051067;28;20041;-26
2022/04/02 10:26:41;;;;;;;1.92;1.60;;;;;;;;;;5051415;28;20124;-25
2022/04/02 10:29:15;;;;;;;3.38;1.80;;;;;;;;;;5051272;28;20399;-25
2022/04/02 10:31:41;;;;;;;;;;;;;;;;;;5051578;28;20036;-25
2022/04/02 10:34:08;;;;;;;3.15;1.83;;;;;;;;;;5051098;28;19973;-27
2022/04/02 10:36:37;;;;;;;2.85;1.83;;;;;;;;;;5051327;28;20486;-25
2022/04/02 10:39:03;;;;;;;3.83;1.75;;;;;;;;;;5050861;28;20115;-26
2022/04/02 10:41:30;;;;;;;3.08;1.60;;;;;;;;;;5051055;28;20521;-27
2022/04/02 10:44:00;;;;;;;3.72;2.10;;;;;;;;;;5051128;28;20059;-27
2022/04/02 10:46:26;;;;;;;2.30;2.10;;;;;;;;;;5050685;28;20052;-26
2022/04/02 10:48:57;;;;;;;3.47;1.83;;;;;;;;;;5050858;28;20118;-27
2022/04/02 10:51:27;;;;;;;2.72;1.80;;;;;;;;;;5055168;28;20037;-30
2022/04/02 10:54:01;;;;;;;3.17;1.98;;;;;;;;;;5057671;28;20048;-29
2022/04/02 10:56:48;;;;;;;1.80;1.60;;;;;;;;;;5056475;28;20037;-30
2022/04/02 10:59:15;;;;;;;1.95;1.55;;;;;;;;;;5059770;28;20045;-27
2022/04/02 11:01:42;;;;;;;2.72;1.55;;;;;;;;;;5058105;28;20037;-28
2022/04/02 11:04:24;;;;;;;2.88;1.60;;;;;;;;;;5059401;28;20067;-29
2022/04/02 11:06:52;;;;;;;1.67;1.58;;;;;;;;;;5057679;28;20040;-28
2022/04/02 11:09:32;;;;;;;2.70;1.38;;;;;;;;;;5058911;28;20407;-30
2022/04/02 11:11:59;;;;;;;1.88;1.33;;;;;;;;;;5057385;28;20044;-34
2022/04/02 11:14:25;;;;;;;3.45;1.85;;;;;;;;;;5061164;28;20029;-28
2022/04/02 11:16:52;;;;;;;3.25;2.15;;;;;;;;;;5062821;28;20041;-30
2022/04/02 11:22:09;;;;;;;3.17;1.98;;;;;;;;;;5057344;28;20101;-29
2022/04/02 11:24:41;;;;;;;4.18;2.05;;;;;;;;;;5063076;28;20159;-28
2022/04/02 11:27:12;;;;;;;3.20;1.92;;;;;;;;;;5059949;28;20040;-33
2022/04/02 11:29:39;;;;;;;2.92;1.65;;;;;;;;;;5058634;28;20379;-29
2022/04/02 11:32:07;;;;;;;2.45;1.83;;;;;;;;;;5060412;28;20394;-29
2022/04/02 11:34:34;;;;;;;1.67;1.58;;;;;;;;;;5061030;28;20041;-30
2022/04/02 11:37:06;;;;;;;2.55;1.70;;;;;;;;;;5060829;28;20036;-31
2022/04/02 11:39:45;;;;;;;3.28;1.80;;;;;;;;;;5063387;28;20047;-28
2022/04/02 11:42:13;;;;;;;2.47;1.75;;;;;;;;;;5063459;28;20193;-28
2022/04/02 11:44:39;;;;;;;2.22;1.80;;;;;;;;;;5062253;28;20041;-29
2022/04/02 11:47:07;;;;;;;4.88;1.80;;;;;;;;;;5059142;28;20029;-29
2022/04/02 11:49:39;;;;;;;4.25;1.90;;;;;;;;;;5063482;28;20457;-32
2022/04/02 11:52:09;;;;;;;2.65;1.55;;;;;;;;;;5061756;28;20106;-28
2022/04/02 11:54:59;;;;;;;1.73;1.33;;;;;;;;;;5064600;28;20113;-28
2022/04/02 11:57:25;;;;;;;2.72;1.55;;;;;;;;;;5052013;28;20061;-29
2022/04/02 12:00:01;;;;;;;1.55;1.40;;;;;;;;;;5062615;28;20048;-29
2022/04/02 12:02:42;;;;;;;1.73;1.40;;;;;;;;;;5060544;28;20530;-29
2022/04/02 12:05:09;;;;;;;2.75;1.50;;;;;;;;;;5061005;28;20391;-30
2022/04/02 12:07:42;;;;;;;1.50;1.40;;;;;;;;;;5060408;28;20052;-29
2022/04/02 12:10:18;;;;;;;1.92;1.40;;;;;;;;;;5061300;28;20118;-28
2022/04/02 12:12:48;;;;;;;4.60;1.60;;;;;;;;;;5061145;28;20059;-28
2022/04/02 12:15:15;;;;;;;1.73;1.52;;;;;;;;;;5057265;28;20033;-28
2022/04/02 12:17:45;;;;;;;2.83;1.80;;;;;;;;;;5062249;28;20051;-29
2022/04/02 12:20:12;;;;;;;2.65;1.70;;;;;;;;;;5058456;28;20107;-28
2022/04/02 12:22:41;;;;;;;1.95;1.60;;;;;;;;;;5055826;28;20041;-29
2022/04/02 12:25:08;;;;;;;2.28;1.48;;;;;;;;;;5066457;28;20506;-30
2022/04/02 12:27:38;;;;;;;3.22;1.88;;;;;;;;;;5066426;28;20116;-27
2022/04/02 12:30:08;;;;;;;2.65;2.00;;;;;;;;;;5062951;28;20059;-28
2022/04/02 12:32:36;;;;;;;4.53;2.03;;;;;;;;;;5073663;28;20086;-30
2022/04/02 12:35:13;;;;;;;10.38;4.15;;;;;;;;;;5073936;28;20244;-27
2022/04/02 12:37:48;;;;;;;6.65;2.92;;;;;;;;;;5073490;28;20044;-29
2022/04/02 12:40:19;;;;;;;4.55;2.30;;;;;;;;;;5073116;28;20098;-28
2022/04/02 12:42:45;;;;;;;3.10;2.13;;;;;;;;;;5073041;28;20047;-32
2022/04/02 12:45:21;;;;;;;1.67;1.35;;;;;;;;;;5073588;28;20494;-31
2022/04/02 12:47:59;;;;;;;3.47;1.88;;;;;;;;;;5072992;28;20485;-29
2022/04/02 12:50:26;;;;;;;4.50;1.80;;;;;;;;;;5068682;28;20040;-28
2022/04/02 12:52:52;;;;;;;3.10;1.85;;;;;;;;;;5052674;28;20041;-30
2022/04/02 12:55:23;;;;;;;3.60;2.05;;;;;;;;;;5057668;28;20033;-29
2022/04/02 12:58:10;;;;;;;2.97;1.85;;;;;;;;;;5071188;28;20041;-30
2022/04/02 13:00:41;;;;;;;2.25;1.75;;;;;;;;;;5072655;28;20044;-29
2022/04/02 13:03:08;;;;;;;2.83;1.75;;;;;;;;;;5072695;28;20044;-30
2022/04/02 13:05:44;;;;;;;2.72;1.45;;;;;;;;;;5073072;28;20060;-34
2022/04/02 13:08:14;;;;;;;2.80;2.15;;;;;;;;;;5065995;28;20055;-31
2022/04/02 13:10:46;;;;;;;3.17;1.70;;;;;;;;;;5068937;28;20033;-30
2022/04/02 13:13:13;;;;;;;2.45;1.50;;;;;;;;;;5054501;28;20055;-31
2022/04/02 13:15:40;;;;;;;4.65;1.88;;;;;;;;;;5071737;28;20181;-34
2022/04/02 13:20:58;;;;;;;2.72;1.98;;;;;;;;;;5072204;28;20040;-29
2022/04/02 13:23:40;;;;;;;1.40;1.30;;;;;;;;;;5070570;28;20047;-30
2022/04/02 13:26:10;;;;;;;2.40;1.27;;;;;;;;;;5071246;28;20036;-31
2022/04/02 13:28:48;;;;;;;2.67;1.75;;;;;;;;;;5068367;28;20048;-30
2022/04/02 13:31:14;;;;;;;2.30;1.50;;;;;;;;;;5053446;28;20048;-25
2022/04/02 13:33:50;;;;;;;2.80;1.45;;;;;;;;;;5053250;28;20505;-27
2022/04/02 13:36:19;;;;;;;3.60;1.80;;;;;;;;;;5064759;28;20039;-25
2022/04/02 13:39:00;;;;;;;2.03;1.70;;;;;;;;;;5061574;28;20463;-26
2022/04/02 13:41:27;;;;;;;5.65;1.67;;;;;;;;;;5064138;28;20052;-29
2022/04/02 13:43:57;;;;;;;3.47;2.20;;;;;;;;;;5064228;28;20040;-28
2022/04/02 13:46:35;;;;;;;5.03;2.08;;;;;;;;;;5054663;28;20068;-26
2022/04/02 13:49:06;;;;;;;2.80;1.80;;;;;;;;;;5062401;28;20542;-25
2022/04/02 13:51:32;;;;;;;3.33;1.85;;;;;;;;;;5060632;28;20028;-25
2022/04/02 13:54:04;;;;;;;5.00;2.00;;;;;;;;;;5044730;28;20044;-24
2022/04/02 13:56:34;;;;;;;2.90;1.70;;;;;;;;;;5061793;28;20170;-25
2022/04/02 13:59:01;;;;;;;3.42;1.60;;;;;;;;;;5057503;28;20055;-25
2022/04/02 14:01:30;;;;;;;3.47;1.83;;;;;;;;;;5062574;28;20426;-27
2022/04/02 14:04:09;;;;;;;2.72;2.00;;;;;;;;;;5070799;28;20116;-24
2022/04/02 14:06:36;;;;;;;2.83;1.80;;;;;;;;;;5072126;28;20037;-25
2022/04/02 14:09:04;;;;;;;2.72;1.80;;;;;;;;;;5060568;28;20094;-25
2022/04/02 14:11:40;;;;;;;2.63;1.80;;;;;;;;;;5051959;28;20041;-24
2022/04/02 14:14:06;;;;;;;1.73;1.63;;;;;;;;;;5060453;28;20037;-25
2022/04/02 14:16:34;;;;;;;2.08;1.80;;;;;;;;;;5051375;28;20037;-29
2022/04/02 14:19:03;;;;;;;3.97;1.80;;;;;;;;;;5060464;28;20049;-29
2022/04/02 14:21:30;;;;;;;4.18;2.20;;;;;;;;;;5058602;28;20419;-31
2022/04/02 14:24:07;;;;;;;3.03;2.60;;;;;;;;;;5066502;28;20099;-30
2022/04/02 14:26:52;;;;;;;4.80;2.20;;;;;;;;;;5057930;28;20398;-29
2022/04/02 14:29:18;;;;;;;5.35;2.53;;;;;;;;;;5055521;28;20037;-31
2022/04/02 14:31:47;;;;;;;5.20;2.00;;;;;;;;;;5059791;28;20103;-29
2022/04/02 14:34:16;;;;;;;3.83;2.10;;;;;;;;;;5059085;28;20072;-29
2022/04/02 14:37:05;;;;;;;2.35;1.90;;;;;;;;;;5064968;28;20066;-29
2022/04/02 14:39:31;;;;;;;3.05;1.92;;;;;;;;;;5060308;28;20040;-31
2022/04/02 14:41:57;;;;;;;3.00;2.13;;;;;;;;;;5054810;28;20058;-30
2022/04/02 14:44:23;;;;;;;3.17;1.85;;;;;;;;;;5062324;28;20032;-29
2022/04/02 14:47:08;;;;;;;2.58;2.00;;;;;;;;;;5038084;28;20131;-31
2022/04/02 14:49:46;;;;;;;1.95;1.77;;;;;;;;;;5062796;28;20378;-29
2022/04/02 14:52:15;;;;;;;2.47;1.50;;;;;;;;;;5060778;28;20484;-30
2022/04/02 14:54:44;;;;;;;2.53;2.10;;;;;;;;;;5056483;28;20043;-33
2022/04/02 14:57:26;;;;;;;4.38;1.90;;;;;;;;;;5060171;28;20120;-31
2022/04/02 14:59:55;;;;;;;1.70;1.52;;;;;;;;;;5065853;28;20041;-30
2022/04/02 15:02:38;;;;;;;3.03;1.90;;;;;;;;;;5059794;28;20075;-29
2022/04/02 15:05:13;;;;;;;3.63;2.30;;;;;;;;;;5062092;28;20040;-32